Time,TemperatureF,DewpointF,PressureIn,WindDirection,WindDirectionDegrees,WindSpeedMPH,WindSpeedGustMPH,Humidity,HourlyPrecipIn,Conditions,Clouds,dailyrainin,SoftwareType,DateUTC
2013-03-26 00:00:00,35.1,23.4,29.82,West,262,3.0,13.0,62,0.00,,---,0.06,VWS V14.01,2013-03-26 04:00:00,
2013-03-26 00:05:00,35.3,24.0,29.83,South,174,6.0,9.0,63,0.00,,---,0.00,VWS V14.01,2013-03-26 04:05:00,
2013-03-26 00:10:00,35.2,24.3,29.82,SSW,204,9.0,12.0,64,0.00,,---,0.00,VWS V14.01,2013-03-26 04:10:00,
2013-03-26 00:15:00,35.2,23.9,29.83,SW,229,6.0,12.0,63,0.00,,---,0.00,VWS V14.01,2013-03-26 04:15:00,
2013-03-26 00:20:00,35.4,23.7,29.83,South,188,1.0,10.0,62,0.00,,---,0.00,VWS V14.01,2013-03-26 04:20:00,
2013-03-26 00:25:00,35.3,23.6,29.83,WSW,258,1.0,6.0,62,0.00,,---,0.00,VWS V14.01,2013-03-26 04:25:00,
2013-03-26 00:30:00,35.2,23.9,29.83,WSW,257,2.0,4.0,63,0.00,,---,0.00,VWS V14.01,2013-03-26 04:30:00,
2013-03-26 00:35:00,35.3,24.0,29.83,WSW,249,5.0,9.0,63,0.00,,---,0.00,VWS V14.01,2013-03-26 04:35:00,
2013-03-26 00:40:00,35.3,23.2,29.83,WNW,294,1.0,6.0,61,0.00,,---,0.00,VWS V14.01,2013-03-26 04:40:00,
2013-03-26 00:45:00,35.4,22.9,29.83,NNW,337,4.0,10.0,60,0.00,,---,0.00,VWS V14.01,2013-03-26 04:45:00,
2013-03-26 00:50:00,35.5,23.0,29.84,WNW,286,5.0,12.0,60,0.00,,---,0.00,VWS V14.01,2013-03-26 04:50:00,
2013-03-26 00:55:00,35.5,23.0,29.82,NE,42,4.0,8.0,60,0.00,,---,0.00,VWS V14.01,2013-03-26 04:55:00,
2013-03-26 01:00:00,35.5,23.0,29.83,NNE,28,3.0,8.0,60,0.00,,---,0.00,VWS V14.01,2013-03-26 05:00:00,
2013-03-26 01:05:00,35.5,23.0,29.83,ENE,68,5.0,11.0,60,0.00,,---,0.00,VWS V14.01,2013-03-26 05:05:00,
2013-03-26 01:10:00,35.4,22.9,29.83,WSW,248,4.0,9.0,60,0.00,,---,0.00,VWS V14.01,2013-03-26 05:10:00,
2013-03-26 01:15:00,35.4,22.9,29.83,South,180,4.0,9.0,60,0.00,,---,0.00,VWS V14.01,2013-03-26 05:15:00,
2013-03-26 01:20:00,35.3,23.2,29.83,WSW,248,4.0,15.0,61,0.00,,---,0.00,VWS V14.01,2013-03-26 05:20:00,
2013-03-26 01:25:00,35.3,24.0,29.84,East,90,4.0,6.0,63,0.00,,---,0.00,VWS V14.01,2013-03-26 05:25:00,
2013-03-26 01:30:00,34.8,23.9,29.84,West,270,5.0,12.0,64,0.00,,---,0.00,VWS V14.01,2013-03-26 05:30:00,
2013-03-26 01:35:00,34.8,23.5,29.84,West,270,4.0,8.0,63,0.00,,---,0.00,VWS V14.01,2013-03-26 05:35:00,
2013-03-26 01:40:00,35.0,23.3,29.84,WNW,292,4.0,14.0,62,0.00,,---,0.00,VWS V14.01,2013-03-26 05:40:00,
2013-03-26 01:45:00,34.9,23.6,29.84,ESE,112,3.0,17.0,63,0.00,,---,0.00,VWS V14.01,2013-03-26 05:45:00,
2013-03-26 01:50:00,35.1,23.0,29.84,NNE,22,5.0,9.0,61,0.00,,---,0.00,VWS V14.01,2013-03-26 05:50:00,
2013-03-26 01:55:00,35.0,24.1,29.83,SSE,158,4.0,8.0,64,0.00,,---,0.00,VWS V14.01,2013-03-26 05:55:00,
2013-03-26 02:00:00,34.5,24.3,29.83,SSE,158,1.0,4.0,66,0.00,,---,0.00,VWS V14.01,2013-03-26 06:00:00,
2013-03-26 02:05:00,34.1,24.3,29.84,SSE,158,2.0,4.0,67,0.00,,---,0.00,VWS V14.01,2013-03-26 06:05:00,
2013-03-26 02:10:00,34.2,23.7,29.84,SE,135,4.0,12.0,65,0.00,,---,0.00,VWS V14.01,2013-03-26 06:10:00,
2013-03-26 02:15:00,34.8,23.1,29.83,South,180,6.0,12.0,62,0.00,,---,0.00,VWS V14.01,2013-03-26 06:15:00,
2013-03-26 02:20:00,35.1,23.4,29.84,SW,225,4.0,10.0,62,0.00,,---,0.00,VWS V14.01,2013-03-26 06:20:00,
2013-03-26 02:25:00,35.2,23.1,29.84,East,90,4.0,11.0,61,0.00,,---,0.00,VWS V14.01,2013-03-26 06:25:00,
2013-03-26 02:30:00,35.3,23.2,29.85,East,90,5.0,10.0,61,0.00,,---,0.00,VWS V14.01,2013-03-26 06:30:00,
2013-03-26 02:35:00,35.4,22.9,29.84,ENE,68,5.0,10.0,60,0.00,,---,0.00,VWS V14.01,2013-03-26 06:35:00,
2013-03-26 02:40:00,35.5,23.4,29.84,ESE,112,5.0,10.0,61,0.00,,---,0.00,VWS V14.01,2013-03-26 06:40:00,
2013-03-26 02:45:00,35.5,23.4,29.84,West,270,5.0,11.0,61,0.00,,---,0.00,VWS V14.01,2013-03-26 06:45:00,
2013-03-26 02:50:00,35.5,23.8,29.84,ENE,68,5.0,14.0,62,0.00,,---,0.00,VWS V14.01,2013-03-26 06:50:00,
2013-03-26 02:55:00,35.6,23.9,29.85,NNE,22,8.0,26.0,62,0.00,,---,0.00,VWS V14.01,2013-03-26 06:55:00,
2013-03-26 03:00:00,35.5,23.8,29.83,WNW,292,6.0,13.0,62,0.00,,---,0.00,VWS V14.01,2013-03-26 07:00:00,
2013-03-26 03:05:00,35.4,23.7,29.84,ENE,68,4.0,10.0,62,0.00,,---,0.00,VWS V14.01,2013-03-26 07:05:00,
2013-03-26 03:10:00,35.3,23.6,29.84,SW,225,6.0,12.0,62,0.00,,---,0.00,VWS V14.01,2013-03-26 07:10:00,
2013-03-26 03:15:00,35.2,23.5,29.84,West,270,4.0,13.0,62,0.00,,---,0.00,VWS V14.01,2013-03-26 07:15:00,
2013-03-26 03:20:00,35.1,23.8,29.84,NW,315,5.0,11.0,63,0.00,,---,0.00,VWS V14.01,2013-03-26 07:20:00,
2013-03-26 03:25:00,35.2,23.5,29.84,NNW,338,7.0,25.0,62,0.00,,---,0.00,VWS V14.01,2013-03-26 07:25:00,
2013-03-26 03:30:00,35.2,23.5,29.85,NW,315,6.0,15.0,62,0.00,,---,0.00,VWS V14.01,2013-03-26 07:30:00,
2013-03-26 03:35:00,35.2,23.9,29.85,NNE,22,5.0,18.0,63,0.00,,---,0.00,VWS V14.01,2013-03-26 07:35:00,
2013-03-26 03:40:00,35.1,23.4,29.84,NNW,338,6.0,15.0,62,0.00,,---,0.00,VWS V14.01,2013-03-26 07:40:00,
2013-03-26 03:45:00,35.1,23.8,29.85,NW,315,3.0,12.0,63,0.00,,---,0.00,VWS V14.01,2013-03-26 07:45:00,
2013-03-26 03:50:00,35.2,23.5,29.84,NE,45,9.0,20.0,62,0.00,,---,0.00,VWS V14.01,2013-03-26 07:50:00,
2013-03-26 03:55:00,35.2,23.5,29.85,WSW,248,5.0,12.0,62,0.00,,---,0.00,VWS V14.01,2013-03-26 07:55:00,
2013-03-26 04:00:00,35.3,23.2,29.85,SSW,202,10.0,22.0,61,0.00,,---,0.00,VWS V14.01,2013-03-26 08:00:00,
2013-03-26 04:05:00,35.3,23.2,29.85,WNW,292,6.0,15.0,61,0.00,,---,0.00,VWS V14.01,2013-03-26 08:05:00,
2013-03-26 04:10:00,35.3,23.2,29.85,North,0,4.0,9.0,61,0.00,,---,0.00,VWS V14.01,2013-03-26 08:10:00,
2013-03-26 04:15:00,35.2,23.5,29.86,NNE,22,4.0,8.0,62,0.00,,---,0.00,VWS V14.01,2013-03-26 08:15:00,
2013-03-26 04:20:00,35.1,23.4,29.85,NNE,22,3.0,14.0,62,0.00,,---,0.00,VWS V14.01,2013-03-26 08:20:00,
2013-03-26 04:25:00,35.1,23.4,29.85,WSW,248,5.0,15.0,62,0.00,,---,0.00,VWS V14.01,2013-03-26 08:25:00,
2013-03-26 04:30:00,35.1,23.4,29.85,North,0,7.0,12.0,62,0.00,,---,0.00,VWS V14.01,2013-03-26 08:30:00,
2013-03-26 04:35:00,35.1,23.4,29.85,NW,315,7.0,23.0,62,0.00,,---,0.00,VWS V14.01,2013-03-26 08:35:00,
2013-03-26 04:40:00,35.1,23.4,29.85,ESE,112,4.0,7.0,62,0.00,,---,0.00,VWS V14.01,2013-03-26 08:40:00,
2013-03-26 04:45:00,34.9,23.2,29.84,SSW,202,3.0,13.0,62,0.00,,---,0.00,VWS V14.01,2013-03-26 08:45:00,
2013-03-26 04:50:00,35.0,23.7,29.85,NE,45,7.0,16.0,63,0.00,,---,0.00,VWS V14.01,2013-03-26 08:50:00,
2013-03-26 04:55:00,35.0,23.7,29.85,WSW,248,5.0,12.0,63,0.00,,---,0.00,VWS V14.01,2013-03-26 08:55:00,
2013-03-26 05:00:00,35.0,23.7,29.84,North,0,6.0,13.0,63,0.00,,---,0.00,VWS V14.01,2013-03-26 09:00:00,
2013-03-26 05:05:00,34.8,23.9,29.84,NNW,338,4.0,14.0,64,0.00,,---,0.00,VWS V14.01,2013-03-26 09:05:00,
2013-03-26 05:10:00,34.9,23.6,29.84,ENE,68,6.0,18.0,63,0.00,,---,0.00,VWS V14.01,2013-03-26 09:10:00,
2013-03-26 05:15:00,34.9,24.0,29.84,ESE,112,4.0,10.0,64,0.00,,---,0.00,VWS V14.01,2013-03-26 09:15:00,
2013-03-26 05:20:00,34.8,23.5,29.84,SE,135,4.0,7.0,63,0.00,,---,0.00,VWS V14.01,2013-03-26 09:20:00,
2013-03-26 05:25:00,34.8,23.5,29.84,SE,135,5.0,9.0,63,0.00,,---,0.00,VWS V14.01,2013-03-26 09:25:00,
2013-03-26 05:30:00,34.7,23.8,29.85,NNE,22,4.0,9.0,64,0.00,,---,0.00,VWS V14.01,2013-03-26 09:30:00,
2013-03-26 05:35:00,34.8,23.5,29.85,SSE,158,5.0,12.0,63,0.00,,---,0.00,VWS V14.01,2013-03-26 09:35:00,
2013-03-26 05:40:00,34.7,23.8,29.85,SE,135,6.0,10.0,64,0.00,,---,0.00,VWS V14.01,2013-03-26 09:40:00,
2013-03-26 05:45:00,34.6,24.1,29.86,ESE,112,4.0,9.0,65,0.00,,---,0.00,VWS V14.01,2013-03-26 09:45:00,
2013-03-26 05:50:00,34.4,24.2,29.85,ENE,68,3.0,5.0,66,0.00,,---,0.00,VWS V14.01,2013-03-26 09:50:00,
2013-03-26 05:55:00,34.3,24.1,29.85,ENE,68,4.0,7.0,66,0.00,,---,0.00,VWS V14.01,2013-03-26 09:55:00,
2013-03-26 06:00:00,33.9,24.1,29.86,ESE,112,4.0,8.0,67,0.00,,---,0.00,VWS V14.01,2013-03-26 10:00:00,
2013-03-26 06:05:00,33.8,24.0,29.85,East,90,4.0,8.0,67,0.00,,---,0.00,VWS V14.01,2013-03-26 10:05:00,
2013-03-26 06:10:00,33.8,24.0,29.85,SE,135,6.0,14.0,67,0.00,,---,0.00,VWS V14.01,2013-03-26 10:10:00,
2013-03-26 06:15:00,34.2,24.4,29.86,NNW,338,3.0,10.0,67,0.00,,---,0.00,VWS V14.01,2013-03-26 10:15:00,
2013-03-26 06:20:00,34.3,24.1,29.86,ESE,112,4.0,9.0,66,0.00,,---,0.00,VWS V14.01,2013-03-26 10:20:00,
2013-03-26 06:25:00,34.3,24.1,29.85,ENE,68,7.0,17.0,66,0.00,,---,0.00,VWS V14.01,2013-03-26 10:25:00,
2013-03-26 06:30:00,34.3,24.1,29.86,SE,135,4.0,8.0,66,0.00,,---,0.00,VWS V14.01,2013-03-26 10:30:00,
2013-03-26 06:35:00,34.1,24.0,29.85,ENE,68,4.0,7.0,66,0.00,,---,0.00,VWS V14.01,2013-03-26 10:35:00,
2013-03-26 06:40:00,34.0,23.9,29.85,ESE,112,6.0,12.0,66,0.00,,---,0.00,VWS V14.01,2013-03-26 10:40:00,
2013-03-26 06:45:00,34.2,24.0,29.85,NNW,338,5.0,12.0,66,0.00,,---,0.00,VWS V14.01,2013-03-26 10:45:00,
2013-03-26 06:50:00,34.3,23.8,29.85,East,90,5.0,14.0,65,0.00,,---,0.00,VWS V14.01,2013-03-26 10:50:00,
2013-03-26 06:55:00,34.4,23.9,29.86,ESE,112,6.0,23.0,65,0.00,,---,0.00,VWS V14.01,2013-03-26 10:55:00,
2013-03-26 07:00:00,34.4,23.9,29.86,SSE,158,5.0,11.0,65,0.00,,---,0.00,VWS V14.01,2013-03-26 11:00:00,
2013-03-26 07:05:00,34.3,23.8,29.86,SSE,158,4.0,8.0,65,0.00,,---,0.00,VWS V14.01,2013-03-26 11:05:00,
2013-03-26 07:10:00,34.3,24.1,29.88,NE,45,4.0,6.0,66,0.00,,---,0.00,VWS V14.01,2013-03-26 11:10:00,
2013-03-26 07:15:00,34.3,24.1,29.87,SSW,202,4.0,7.0,66,0.00,,---,0.00,VWS V14.01,2013-03-26 11:15:00,
2013-03-26 07:20:00,34.1,24.3,29.87,SE,135,4.0,7.0,67,0.00,,---,0.00,VWS V14.01,2013-03-26 11:20:00,
2013-03-26 07:25:00,33.9,24.1,29.88,SE,135,4.0,8.0,67,0.00,,---,0.00,VWS V14.01,2013-03-26 11:25:00,
2013-03-26 07:30:00,34.2,24.0,29.87,SW,225,6.0,21.0,66,0.00,,---,0.00,VWS V14.01,2013-03-26 11:30:00,
2013-03-26 07:35:00,34.2,24.4,29.88,ESE,112,5.0,9.0,67,0.00,,---,0.00,VWS V14.01,2013-03-26 11:35:00,
2013-03-26 07:40:00,34.4,24.2,29.88,ESE,112,3.0,7.0,66,0.00,,---,0.00,VWS V14.01,2013-03-26 11:40:00,
2013-03-26 07:45:00,34.6,24.4,29.88,South,180,2.0,6.0,66,0.00,,---,0.00,VWS V14.01,2013-03-26 11:45:00,
2013-03-26 07:50:00,34.6,24.4,29.89,SSE,158,1.0,4.0,66,0.00,,---,0.00,VWS V14.01,2013-03-26 11:50:00,
2013-03-26 07:55:00,34.6,24.8,29.89,SE,135,4.0,8.0,67,0.00,,---,0.00,VWS V14.01,2013-03-26 11:55:00,
2013-03-26 08:00:00,34.7,24.5,29.89,South,180,5.0,10.0,66,0.00,,---,0.00,VWS V14.01,2013-03-26 12:00:00,
2013-03-26 08:05:00,34.6,25.1,29.90,SSW,202,1.0,8.0,68,0.00,,---,0.00,VWS V14.01,2013-03-26 12:05:00,
2013-03-26 08:10:00,34.8,24.6,29.90,East,90,6.0,20.0,66,0.00,,---,0.00,VWS V14.01,2013-03-26 12:10:00,
2013-03-26 08:15:00,35.0,24.4,29.90,SE,135,5.0,9.0,65,0.00,,---,0.00,VWS V14.01,2013-03-26 12:15:00,
2013-03-26 08:20:00,35.0,24.4,29.90,SE,135,3.0,8.0,65,0.00,,---,0.00,VWS V14.01,2013-03-26 12:20:00,
2013-03-26 08:25:00,35.1,24.5,29.90,East,90,2.0,5.0,65,0.00,,---,0.00,VWS V14.01,2013-03-26 12:25:00,
2013-03-26 08:30:00,35.0,24.4,29.90,East,90,2.0,5.0,65,0.00,,---,0.00,VWS V14.01,2013-03-26 12:30:00,
2013-03-26 08:35:00,34.9,25.1,29.90,South,180,3.0,6.0,67,0.00,,---,0.00,VWS V14.01,2013-03-26 12:35:00,
2013-03-26 08:40:00,35.0,24.8,29.91,SSE,158,3.0,7.0,66,0.00,,---,0.00,VWS V14.01,2013-03-26 12:40:00,
2013-03-26 08:45:00,35.0,25.5,29.90,SE,135,4.0,10.0,68,0.00,,---,0.00,VWS V14.01,2013-03-26 12:45:00,
2013-03-26 08:50:00,35.3,25.1,29.91,SSE,158,5.0,7.0,66,0.00,,---,0.00,VWS V14.01,2013-03-26 12:50:00,
2013-03-26 08:55:00,35.6,25.0,29.92,East,90,4.0,8.0,65,0.00,,---,0.00,VWS V14.01,2013-03-26 12:55:00,
2013-03-26 09:00:00,36.0,25.4,29.92,ENE,68,3.0,8.0,65,0.00,,---,0.00,VWS V14.01,2013-03-26 13:00:00,
2013-03-26 09:05:00,36.3,25.7,29.92,NE,45,4.0,7.0,65,0.00,,---,0.00,VWS V14.01,2013-03-26 13:05:00,
2013-03-26 09:10:00,36.8,25.8,29.92,NE,45,3.0,11.0,64,0.00,,---,0.00,VWS V14.01,2013-03-26 13:10:00,
2013-03-26 09:15:00,36.9,25.5,29.93,East,90,1.0,4.0,63,0.00,,---,0.00,VWS V14.01,2013-03-26 13:15:00,
2013-03-26 09:20:00,37.0,26.3,29.92,East,90,2.0,11.0,65,0.00,,---,0.00,VWS V14.01,2013-03-26 13:20:00,
2013-03-26 09:25:00,37.4,26.0,29.93,West,270,5.0,13.0,63,0.00,,---,0.00,VWS V14.01,2013-03-26 13:25:00,
2013-03-26 09:30:00,38.0,27.3,29.93,West,270,1.0,4.0,65,0.00,,---,0.00,VWS V14.01,2013-03-26 13:30:00,
2013-03-26 09:35:00,38.2,26.7,29.94,SW,225,4.0,10.0,63,0.00,,---,0.00,VWS V14.01,2013-03-26 13:35:00,
2013-03-26 09:40:00,38.3,26.8,29.94,North,0,3.0,9.0,63,0.00,,---,0.00,VWS V14.01,2013-03-26 13:40:00,
2013-03-26 09:47:00,38.3,26.8,29.94,North,0,3.0,9.0,63,0.00,,---,0.00,VWS V14.01,2013-03-26 13:47:00,
2013-03-26 09:50:00,38.0,26.1,29.95,West,264,4.0,24.0,62,0.00,,---,0.00,VWS V14.01,2013-03-26 13:50:00,
2013-03-26 09:55:00,38.1,25.9,29.94,ENE,59,4.0,14.0,61,0.00,,---,0.00,VWS V14.01,2013-03-26 13:55:00,
2013-03-26 10:00:00,38.3,26.4,29.95,ENE,69,2.0,8.0,62,0.00,,---,0.00,VWS V14.01,2013-03-26 14:00:00,
2013-03-26 10:05:00,38.8,26.5,29.94,NE,36,10.0,17.0,61,0.00,,---,0.00,VWS V14.01,2013-03-26 14:05:00,
2013-03-26 10:10:00,38.7,26.0,29.95,NE,44,3.0,10.0,60,0.00,,---,0.00,VWS V14.01,2013-03-26 14:10:00,
2013-03-26 10:15:00,38.4,26.1,29.95,NW,312,4.0,13.0,61,0.00,,---,0.00,VWS V14.01,2013-03-26 14:15:00,
2013-03-26 10:20:00,38.5,26.6,29.95,NNW,332,6.0,12.0,62,0.00,,---,0.00,VWS V14.01,2013-03-26 14:20:00,
2013-03-26 10:25:00,38.7,26.4,29.95,East,90,7.0,12.0,61,0.00,,---,0.00,VWS V14.01,2013-03-26 14:25:00,
2013-03-26 10:30:00,38.7,26.8,29.96,NNE,16,4.0,13.0,62,0.00,,---,0.00,VWS V14.01,2013-03-26 14:30:00,
2013-03-26 10:35:00,38.7,26.4,29.96,WNW,303,2.0,18.0,61,0.00,,---,0.00,VWS V14.01,2013-03-26 14:35:00,
2013-03-26 10:40:00,38.7,26.4,29.96,NNE,25,8.0,21.0,61,0.00,,---,0.00,VWS V14.01,2013-03-26 14:40:00,
2013-03-26 10:45:00,38.5,26.2,29.96,NW,313,7.0,12.0,61,0.00,,---,0.00,VWS V14.01,2013-03-26 14:45:00,
2013-03-26 10:50:00,38.7,26.8,29.96,NNE,17,1.0,20.0,62,0.00,,---,0.00,VWS V14.01,2013-03-26 14:50:00,
2013-03-26 10:55:00,38.9,26.6,29.96,WSW,246,5.0,16.0,61,0.00,,---,0.00,VWS V14.01,2013-03-26 14:55:00,
2013-03-26 11:00:00,39.3,27.0,29.97,NW,316,5.0,12.0,61,0.00,,---,0.00,VWS V14.01,2013-03-26 15:00:00,
2013-03-26 11:05:00,39.5,27.2,29.97,West,279,7.0,14.0,61,0.00,,---,0.00,VWS V14.01,2013-03-26 15:05:00,
2013-03-26 11:10:00,39.5,26.4,29.98,WSW,248,4.0,15.0,59,0.00,,---,0.00,VWS V14.01,2013-03-26 15:10:00,
2013-03-26 11:15:00,39.5,27.6,29.99,WNW,291,7.0,7.0,62,0.00,,---,0.00,VWS V14.01,2013-03-26 15:15:00,
2013-03-26 11:20:00,39.4,26.7,29.98,West,259,6.0,16.0,60,0.00,,---,0.00,VWS V14.01,2013-03-26 15:20:00,
2013-03-26 11:25:00,39.5,27.2,29.98,West,275,15.0,15.0,61,0.00,,---,0.00,VWS V14.01,2013-03-26 15:25:00,
2013-03-26 11:30:00,39.6,27.3,29.98,WNW,292,5.0,15.0,61,0.00,,---,0.00,VWS V14.01,2013-03-26 15:30:00,
2013-03-26 11:35:00,40.2,28.2,29.98,NE,43,4.0,8.0,62,0.00,,---,0.00,VWS V14.01,2013-03-26 15:35:00,
2013-03-26 11:40:00,40.3,27.5,29.99,NW,323,2.0,17.0,60,0.00,,---,0.00,VWS V14.01,2013-03-26 15:40:00,
2013-03-26 11:45:00,40.1,27.8,29.98,WNW,294,9.0,15.0,61,0.00,,---,0.00,VWS V14.01,2013-03-26 15:45:00,
2013-03-26 11:50:00,40.2,27.4,29.99,NNE,28,5.0,18.0,60,0.00,,---,0.00,VWS V14.01,2013-03-26 15:50:00,
2013-03-26 11:55:00,39.7,27.0,29.99,WNW,286,11.0,15.0,60,0.00,,---,0.00,VWS V14.01,2013-03-26 15:55:00,
2013-03-26 12:00:00,39.6,27.3,30.00,WSW,251,3.0,11.0,61,0.00,,---,0.00,VWS V14.01,2013-03-26 16:00:00,
2013-03-26 12:05:00,39.6,26.9,30.00,West,279,13.0,18.0,60,0.00,,---,0.00,VWS V14.01,2013-03-26 16:05:00,
2013-03-26 12:10:00,39.3,27.0,29.99,North,360,13.0,16.0,61,0.00,,---,0.00,VWS V14.01,2013-03-26 16:10:00,
2013-03-26 12:15:00,39.2,26.9,30.00,North,350,5.0,18.0,61,0.00,,---,0.00,VWS V14.01,2013-03-26 16:15:00,
2013-03-26 12:20:00,39.1,26.8,30.00,West,260,5.0,17.0,61,0.00,,---,0.00,VWS V14.01,2013-03-26 16:20:00,
2013-03-26 12:25:00,39.3,27.0,30.00,NW,317,5.0,15.0,61,0.00,,---,0.00,VWS V14.01,2013-03-26 16:25:00,
2013-03-26 12:30:00,39.4,27.1,30.00,WNW,298,5.0,11.0,61,0.00,,---,0.00,VWS V14.01,2013-03-26 16:30:00,
2013-03-26 12:35:00,39.5,27.2,30.00,WNW,282,7.0,13.0,61,0.00,,---,0.00,VWS V14.01,2013-03-26 16:35:00,
2013-03-26 12:40:00,39.5,26.8,30.00,West,266,3.0,13.0,60,0.00,,---,0.00,VWS V14.01,2013-03-26 16:40:00,
2013-03-26 12:45:00,39.6,26.9,30.00,NW,325,4.0,15.0,60,0.00,,---,0.00,VWS V14.01,2013-03-26 16:45:00,
2013-03-26 12:50:00,39.7,27.8,30.01,NNE,13,2.0,11.0,62,0.00,,---,0.00,VWS V14.01,2013-03-26 16:50:00,
2013-03-26 12:55:00,39.7,26.6,30.00,WNW,288,6.0,12.0,59,0.00,,---,0.00,VWS V14.01,2013-03-26 16:55:00,
2013-03-26 13:00:00,39.8,26.7,30.00,NNW,340,5.0,7.0,59,0.00,,---,0.00,VWS V14.01,2013-03-26 17:00:00,
2013-03-26 13:05:00,39.9,26.8,30.00,WSW,249,8.0,19.0,59,0.00,,---,0.00,VWS V14.01,2013-03-26 17:05:00,
2013-03-26 13:10:00,39.9,26.3,30.01,WNW,287,8.0,17.0,58,0.00,,---,0.00,VWS V14.01,2013-03-26 17:10:00,
2013-03-26 13:15:00,40.1,26.9,30.01,NNE,26,3.0,13.0,59,0.00,,---,0.00,VWS V14.01,2013-03-26 17:15:00,
2013-03-26 13:20:00,40.4,26.8,30.00,West,259,7.0,14.0,58,0.00,,---,0.00,VWS V14.01,2013-03-26 17:20:00,
2013-03-26 13:25:00,40.4,26.4,30.00,WNW,288,1.0,12.0,57,0.00,,---,0.00,VWS V14.01,2013-03-26 17:25:00,
2013-03-26 13:30:00,40.7,26.2,30.00,West,277,4.0,11.0,56,0.00,,---,0.00,VWS V14.01,2013-03-26 17:30:00,
2013-03-26 13:35:00,40.7,26.2,30.00,NNE,32,7.0,12.0,56,0.00,,---,0.00,VWS V14.01,2013-03-26 17:35:00,
2013-03-26 13:40:00,40.6,26.6,30.00,NNW,329,2.0,11.0,57,0.00,,---,0.00,VWS V14.01,2013-03-26 17:40:00,
2013-03-26 13:45:00,40.6,26.6,30.00,North,360,7.0,10.0,57,0.00,,---,0.00,VWS V14.01,2013-03-26 17:45:00,
2013-03-26 13:50:00,40.5,26.5,30.01,WSW,252,3.0,13.0,57,0.00,,---,0.00,VWS V14.01,2013-03-26 17:50:00,
2013-03-26 13:55:00,40.5,26.9,30.00,NE,44,7.0,19.0,58,0.00,,---,0.00,VWS V14.01,2013-03-26 17:55:00,
2013-03-26 14:00:00,40.6,26.6,30.00,NNW,329,5.0,14.0,57,0.00,,---,0.00,VWS V14.01,2013-03-26 18:00:00,
2013-03-26 14:05:00,40.9,26.0,30.01,North,9,12.0,13.0,55,0.00,,---,0.00,VWS V14.01,2013-03-26 18:05:00,
2013-03-26 14:10:00,40.9,26.9,30.01,West,268,8.0,20.0,57,0.00,,---,0.00,VWS V14.01,2013-03-26 18:10:00,
2013-03-26 14:15:00,40.5,26.5,30.01,ENE,59,8.0,18.0,57,0.00,,---,0.00,VWS V14.01,2013-03-26 18:15:00,
2013-03-26 14:20:00,40.7,27.9,30.00,NW,305,4.0,13.0,60,0.00,,---,0.00,VWS V14.01,2013-03-26 18:20:00,
2013-03-26 14:25:00,41.1,26.6,30.00,NE,48,7.0,12.0,56,0.00,,---,0.00,VWS V14.01,2013-03-26 18:25:00,
2013-03-26 14:30:00,41.1,26.2,30.00,NW,316,12.0,22.0,55,0.00,,---,0.00,VWS V14.01,2013-03-26 18:30:00,
2013-03-26 14:35:00,40.9,26.9,30.01,WNW,297,5.0,15.0,57,0.00,,---,0.00,VWS V14.01,2013-03-26 18:35:00,
2013-03-26 14:40:00,41.5,27.8,30.00,West,265,4.0,13.0,58,0.00,,---,0.00,VWS V14.01,2013-03-26 18:40:00,
2013-03-26 14:45:00,41.8,27.3,30.00,SW,225,6.0,22.0,56,0.00,,---,0.00,VWS V14.01,2013-03-26 18:45:00,
2013-03-26 14:50:00,41.3,26.8,30.01,WNW,292,11.0,16.0,56,0.00,,---,0.00,VWS V14.01,2013-03-26 18:50:00,
2013-03-26 14:55:00,41.0,27.0,30.00,NNE,13,8.0,16.0,57,0.00,,---,0.00,VWS V14.01,2013-03-26 18:55:00,
2013-03-26 15:00:00,40.9,26.4,30.01,NNW,342,10.0,19.0,56,0.00,,---,0.00,VWS V14.01,2013-03-26 19:00:00,
2013-03-26 15:05:00,40.5,26.5,30.00,NNE,32,4.0,18.0,57,0.00,,---,0.00,VWS V14.01,2013-03-26 19:05:00,
2013-03-26 15:10:00,41.4,29.0,30.01,NW,319,0.0,11.0,61,0.00,,---,0.00,VWS V14.01,2013-03-26 19:10:00,
2013-03-26 15:15:00,41.5,26.5,30.00,NE,48,5.0,8.0,55,0.00,,---,0.00,VWS V14.01,2013-03-26 19:15:00,
2013-03-26 15:20:00,41.4,27.3,30.01,NE,50,2.0,11.0,57,0.00,,---,0.00,VWS V14.01,2013-03-26 19:20:00,
2013-03-26 15:25:00,41.8,26.8,30.01,NNW,331,5.0,13.0,55,0.00,,---,0.00,VWS V14.01,2013-03-26 19:25:00,
2013-03-26 15:30:00,41.8,26.8,30.01,WNW,289,9.0,18.0,55,0.00,,---,0.00,VWS V14.01,2013-03-26 19:30:00,
2013-03-26 15:35:00,41.6,26.6,30.01,NNE,26,7.0,18.0,55,0.00,,---,0.00,VWS V14.01,2013-03-26 19:35:00,
2013-03-26 15:40:00,41.6,27.1,30.01,WNW,292,15.0,18.0,56,0.00,,---,0.00,VWS V14.01,2013-03-26 19:40:00,
2013-03-26 15:45:00,41.7,26.7,30.01,NW,315,7.0,21.0,55,0.00,,---,0.00,VWS V14.01,2013-03-26 19:45:00,
2013-03-26 15:50:00,41.6,26.2,30.01,NNW,342,4.0,14.0,54,0.00,,---,0.00,VWS V14.01,2013-03-26 19:50:00,
2013-03-26 15:55:00,41.7,26.3,30.01,WSW,246,4.0,8.0,54,0.00,,---,0.00,VWS V14.01,2013-03-26 19:55:00,
2013-03-26 16:00:00,41.4,26.0,30.01,NW,321,5.0,17.0,54,0.00,,---,0.00,VWS V14.01,2013-03-26 20:00:00,
2013-03-26 16:05:00,41.3,26.8,30.02,NE,49,3.0,13.0,56,0.00,,---,0.00,VWS V14.01,2013-03-26 20:05:00,
2013-03-26 16:10:00,41.4,26.5,30.01,NW,326,1.0,14.0,55,0.00,,---,0.00,VWS V14.01,2013-03-26 20:10:00,
2013-03-26 16:15:00,41.3,26.4,30.01,WSW,247,4.0,7.0,55,0.00,,---,0.00,VWS V14.01,2013-03-26 20:15:00,
2013-03-26 16:20:00,41.6,27.5,30.01,NNE,20,1.0,17.0,57,0.00,,---,0.00,VWS V14.01,2013-03-26 20:20:00,
2013-03-26 16:25:00,42.3,27.3,30.02,SW,215,7.0,10.0,55,0.00,,---,0.00,VWS V14.01,2013-03-26 20:25:00,
2013-03-26 16:30:00,41.8,26.8,30.02,NE,55,11.0,17.0,55,0.00,,---,0.00,VWS V14.01,2013-03-26 20:30:00,
2013-03-26 16:35:00,41.4,26.5,30.02,WSW,244,4.0,19.0,55,0.00,,---,0.00,VWS V14.01,2013-03-26 20:35:00,
2013-03-26 16:40:00,41.4,29.0,30.02,North,11,6.0,15.0,61,0.00,,---,0.00,VWS V14.01,2013-03-26 20:40:00,
2013-03-26 16:45:00,41.3,26.4,30.02,SW,231,6.0,15.0,55,0.00,,---,0.00,VWS V14.01,2013-03-26 20:45:00,
2013-03-26 16:50:00,41.5,26.5,30.03,NW,315,13.0,14.0,55,0.00,,---,0.00,VWS V14.01,2013-03-26 20:50:00,
2013-03-26 16:55:00,41.8,26.4,30.02,NW,304,0.0,20.0,54,0.00,,---,0.00,VWS V14.01,2013-03-26 20:55:00,
2013-03-26 17:00:00,42.0,27.0,30.03,WNW,283,7.0,12.0,55,0.00,,---,0.00,VWS V14.01,2013-03-26 21:00:00,
2013-03-26 17:05:00,41.5,26.1,30.03,NE,49,7.0,22.0,54,0.00,,---,0.00,VWS V14.01,2013-03-26 21:05:00,
2013-03-26 17:10:00,41.0,26.1,30.03,WNW,285,5.0,17.0,55,0.00,,---,0.00,VWS V14.01,2013-03-26 21:10:00,
2013-03-26 17:15:00,41.0,26.5,30.03,SSE,165,2.0,11.0,56,0.00,,---,0.00,VWS V14.01,2013-03-26 21:15:00,
2013-03-26 17:20:00,41.2,26.3,30.04,NE,56,6.0,17.0,55,0.00,,---,0.00,VWS V14.01,2013-03-26 21:20:00,
2013-03-26 17:25:00,41.6,26.6,30.04,NNW,327,4.0,9.0,55,0.00,,---,0.00,VWS V14.01,2013-03-26 21:25:00,
2013-03-26 17:30:00,41.6,26.6,30.05,West,274,13.0,13.0,55,0.00,,---,0.00,VWS V14.01,2013-03-26 21:30:00,
2013-03-26 17:35:00,41.3,26.8,30.04,WSW,251,4.0,15.0,56,0.00,,---,0.00,VWS V14.01,2013-03-26 21:35:00,
2013-03-26 17:40:00,40.8,26.3,30.05,WNW,282,19.0,19.0,56,0.00,,---,0.00,VWS V14.01,2013-03-26 21:40:00,
2013-03-26 17:45:00,40.2,26.2,30.05,WNW,293,0.0,19.0,57,0.00,,---,0.00,VWS V14.01,2013-03-26 21:45:00,
2013-03-26 17:50:00,40.4,27.2,30.05,West,267,7.0,11.0,59,0.00,,---,0.00,VWS V14.01,2013-03-26 21:50:00,
2013-03-26 17:55:00,40.5,26.9,30.04,WSW,254,11.0,15.0,58,0.00,,---,0.00,VWS V14.01,2013-03-26 21:55:00,
2013-03-26 18:00:00,40.6,27.0,30.05,West,274,2.0,13.0,58,0.00,,---,0.00,VWS V14.01,2013-03-26 22:00:00,
2013-03-26 18:05:00,40.7,27.5,30.05,NW,309,4.0,8.0,59,0.00,,---,0.00,VWS V14.01,2013-03-26 22:05:00,
2013-03-26 18:10:00,41.6,27.5,30.05,WNW,292,7.0,11.0,57,0.00,,---,0.00,VWS V14.01,2013-03-26 22:10:00,
2013-03-26 18:15:00,41.5,27.0,30.06,NNE,19,7.0,13.0,56,0.00,,---,0.00,VWS V14.01,2013-03-26 22:15:00,
2013-03-26 18:20:00,41.4,26.5,30.06,NE,44,3.0,15.0,55,0.00,,---,0.00,VWS V14.01,2013-03-26 22:20:00,
2013-03-26 18:25:00,41.0,26.5,30.06,North,351,4.0,14.0,56,0.00,,---,0.00,VWS V14.01,2013-03-26 22:25:00,
2013-03-26 18:30:00,40.8,26.3,30.06,NNE,19,1.0,13.0,56,0.00,,---,0.00,VWS V14.01,2013-03-26 22:30:00,
2013-03-26 18:35:00,40.4,26.4,30.06,North,355,2.0,14.0,57,0.00,,---,0.00,VWS V14.01,2013-03-26 22:35:00,
2013-03-26 18:40:00,40.1,26.9,30.07,North,5,2.0,11.0,59,0.00,,---,0.00,VWS V14.01,2013-03-26 22:40:00,
2013-03-26 18:45:00,40.0,26.4,30.07,NE,50,2.0,8.0,58,0.00,,---,0.00,VWS V14.01,2013-03-26 22:45:00,
2013-03-26 18:50:00,39.8,26.2,30.07,WSW,245,8.0,8.0,58,0.00,,---,0.00,VWS V14.01,2013-03-26 22:50:00,
2013-03-26 18:55:00,39.7,25.7,30.07,SW,220,2.0,12.0,57,0.00,,---,0.00,VWS V14.01,2013-03-26 22:55:00,
2013-03-26 19:00:00,39.7,26.1,30.08,North,9,2.0,10.0,58,0.00,,---,0.00,VWS V14.01,2013-03-26 23:00:00,
2013-03-26 19:05:00,39.7,26.6,30.08,NE,45,2.0,7.0,59,0.00,,---,0.00,VWS V14.01,2013-03-26 23:05:00,
2013-03-26 19:10:00,39.7,26.1,30.08,WNW,288,0.0,7.0,58,0.00,,---,0.00,VWS V14.01,2013-03-26 23:10:00,
2013-03-26 19:15:00,39.6,24.8,30.08,WNW,296,7.0,8.0,55,0.00,,---,0.00,VWS V14.01,2013-03-26 23:15:00,
2013-03-26 19:20:00,39.5,24.7,30.08,SE,144,5.0,9.0,55,0.00,,---,0.00,VWS V14.01,2013-03-26 23:20:00,
2013-03-26 19:25:00,39.3,24.9,30.09,NE,40,2.0,13.0,56,0.00,,---,0.00,VWS V14.01,2013-03-26 23:25:00,
2013-03-26 19:30:00,39.1,24.3,30.08,SW,223,0.0,14.0,55,0.00,,---,0.00,VWS V14.01,2013-03-26 23:30:00,
2013-03-26 19:35:00,38.9,24.1,30.08,North,360,3.0,4.0,55,0.00,,---,0.00,VWS V14.01,2013-03-26 23:35:00,
2013-03-26 19:40:00,38.7,23.9,30.08,NNE,21,5.0,12.0,55,0.00,,---,0.00,VWS V14.01,2013-03-26 23:40:00,
2013-03-26 19:45:00,38.6,24.3,30.09,NNW,333,2.0,10.0,56,0.00,,---,0.00,VWS V14.01,2013-03-26 23:45:00,
2013-03-26 19:50:00,38.4,24.1,30.10,WNW,284,8.0,11.0,56,0.00,,---,0.00,VWS V14.01,2013-03-26 23:50:00,
2013-03-26 19:55:00,38.3,24.0,30.09,SSW,210,2.0,18.0,56,0.00,,---,0.00,VWS V14.01,2013-03-26 23:55:00,
2013-03-26 20:00:00,38.2,24.3,30.10,North,355,10.0,19.0,57,0.00,,---,0.00,VWS V14.01,2013-03-27 00:00:00,
2013-03-26 20:05:00,38.0,24.1,30.10,NW,307,2.0,10.0,57,0.00,,---,0.00,VWS V14.01,2013-03-27 00:05:00,
2013-03-26 20:10:00,37.8,24.4,30.10,WSW,253,2.0,7.0,58,0.00,,---,0.00,VWS V14.01,2013-03-27 00:10:00,
2013-03-26 20:15:00,37.6,24.2,30.10,WSW,251,4.0,11.0,58,0.00,,---,0.00,VWS V14.01,2013-03-27 00:15:00,
2013-03-26 20:20:00,37.6,24.2,30.10,WSW,239,3.0,5.0,58,0.00,,---,0.00,VWS V14.01,2013-03-27 00:20:00,
2013-03-26 20:25:00,37.2,24.2,30.10,NNE,15,2.0,6.0,59,0.00,,---,0.00,VWS V14.01,2013-03-27 00:25:00,
2013-03-26 20:30:00,37.2,24.2,30.10,WSW,250,5.0,5.0,59,0.00,,---,0.00,VWS V14.01,2013-03-27 00:30:00,
2013-03-26 20:35:00,37.0,24.0,30.11,SSW,194,4.0,6.0,59,0.00,,---,0.00,VWS V14.01,2013-03-27 00:35:00,
2013-03-26 20:40:00,36.9,23.9,30.11,West,261,3.0,9.0,59,0.00,,---,0.00,VWS V14.01,2013-03-27 00:40:00,
2013-03-26 20:45:00,36.8,23.8,30.11,South,190,2.0,6.0,59,0.00,,---,0.00,VWS V14.01,2013-03-27 00:45:00,
2013-03-26 20:50:00,36.5,24.3,30.10,West,263,0.0,6.0,61,0.00,,---,0.00,VWS V14.01,2013-03-27 00:50:00,
2013-03-26 20:55:00,36.0,24.3,30.11,SW,223,2.0,6.0,62,0.00,,---,0.00,VWS V14.01,2013-03-27 00:55:00,
2013-03-26 21:00:00,35.8,24.8,30.11,NNW,328,2.0,11.0,64,0.00,,---,0.00,VWS V14.01,2013-03-27 01:00:00,
2013-03-26 21:05:00,35.4,24.5,30.11,NW,318,2.0,5.0,64,0.00,,---,0.00,VWS V14.01,2013-03-27 01:05:00,
2013-03-26 21:10:00,35.1,24.5,30.12,NW,318,0.0,5.0,65,0.00,,---,0.00,VWS V14.01,2013-03-27 01:10:00,
2013-03-26 21:15:00,35.1,24.5,30.12,NW,318,2.0,4.0,65,0.00,,---,0.00,VWS V14.01,2013-03-27 01:15:00,
2013-03-26 21:20:00,34.8,24.6,30.12,NW,318,2.0,2.0,66,0.00,,---,0.00,VWS V14.01,2013-03-27 01:20:00,
2013-03-26 21:25:00,34.3,24.9,30.12,NW,318,0.0,2.0,68,0.00,,---,0.00,VWS V14.01,2013-03-27 01:25:00,
2013-03-26 21:30:00,33.8,25.1,30.12,NW,318,2.0,4.0,70,0.00,,---,0.00,VWS V14.01,2013-03-27 01:30:00,
2013-03-26 21:35:00,33.3,25.3,30.12,NW,318,0.0,2.0,72,0.00,,---,0.00,VWS V14.01,2013-03-27 01:35:00,
2013-03-26 21:40:00,33.2,26.1,30.13,NW,318,1.0,4.0,75,0.00,,---,0.00,VWS V14.01,2013-03-27 01:40:00,
2013-03-26 21:45:00,33.0,26.3,30.13,NW,318,0.0,4.0,76,0.00,,---,0.00,VWS V14.01,2013-03-27 01:45:00,
2013-03-26 21:50:00,33.2,26.1,30.13,NW,318,0.0,2.0,75,0.00,,---,0.00,VWS V14.01,2013-03-27 01:50:00,
2013-03-26 21:55:00,33.3,26.2,30.14,NW,318,2.0,4.0,75,0.00,,---,0.00,VWS V14.01,2013-03-27 01:55:00,
2013-03-26 22:00:00,33.6,26.5,30.14,NW,318,0.0,2.0,75,0.00,,---,0.00,VWS V14.01,2013-03-27 02:00:00,
2013-03-26 22:05:00,33.7,26.6,30.14,NW,318,4.0,4.0,75,0.00,,---,0.00,VWS V14.01,2013-03-27 02:05:00,
2013-03-26 22:10:00,33.7,26.6,30.14,NW,318,4.0,5.0,75,0.00,,---,0.00,VWS V14.01,2013-03-27 02:10:00,
2013-03-26 22:15:00,33.9,26.2,30.14,NW,318,0.0,4.0,73,0.00,,---,0.00,VWS V14.01,2013-03-27 02:15:00,
2013-03-26 22:20:00,34.6,26.5,30.14,SSW,192,1.0,5.0,72,0.00,,---,0.00,VWS V14.01,2013-03-27 02:20:00,
2013-03-26 22:25:00,35.3,26.5,30.15,South,173,4.0,5.0,70,0.00,,---,0.00,VWS V14.01,2013-03-27 02:25:00,
2013-03-26 22:30:00,35.4,27.0,30.14,SSW,208,1.0,4.0,71,0.00,,---,0.00,VWS V14.01,2013-03-27 02:30:00,
2013-03-26 22:35:00,35.0,27.2,30.15,SW,231,0.0,3.0,73,0.00,,---,0.00,VWS V14.01,2013-03-27 02:35:00,
2013-03-26 22:40:00,34.8,27.4,30.15,NNE,15,4.0,4.0,74,0.00,,---,0.00,VWS V14.01,2013-03-27 02:40:00,
2013-03-26 22:45:00,34.9,26.8,30.15,NNE,17,2.0,4.0,72,0.00,,---,0.00,VWS V14.01,2013-03-27 02:45:00,
2013-03-26 22:50:00,35.1,26.3,30.15,NNE,17,0.0,2.0,70,0.00,,---,0.00,VWS V14.01,2013-03-27 02:50:00,
2013-03-26 22:55:00,35.3,26.9,30.15,SE,136,0.0,7.0,71,0.00,,---,0.00,VWS V14.01,2013-03-27 02:55:00,
2013-03-26 23:00:00,35.1,27.3,30.15,NNW,343,4.0,6.0,73,0.00,,---,0.00,VWS V14.01,2013-03-27 03:00:00,
2013-03-26 23:05:00,34.9,27.5,30.15,North,351,2.0,5.0,74,0.00,,---,0.00,VWS V14.01,2013-03-27 03:05:00,
2013-03-26 23:10:00,34.6,27.2,30.15,East,84,3.0,5.0,74,0.00,,---,0.00,VWS V14.01,2013-03-27 03:10:00,
2013-03-26 23:15:00,34.8,27.0,30.15,NNE,32,1.0,9.0,73,0.00,,---,0.00,VWS V14.01,2013-03-27 03:15:00,
2013-03-26 23:20:00,35.2,26.8,30.15,SSW,195,4.0,6.0,71,0.00,,---,0.00,VWS V14.01,2013-03-27 03:20:00,
2013-03-26 23:25:00,35.8,26.6,30.15,SSW,196,0.0,6.0,69,0.00,,---,0.00,VWS V14.01,2013-03-27 03:25:00,
2013-03-26 23:30:00,36.1,26.6,30.14,SSW,205,3.0,4.0,68,0.00,,---,0.00,VWS V14.01,2013-03-27 03:30:00,
2013-03-26 23:35:00,36.3,26.4,30.15,SSW,205,0.0,3.0,67,0.00,,---,0.00,VWS V14.01,2013-03-27 03:35:00,
2013-03-26 23:40:00,36.4,26.1,30.15,West,279,8.0,8.0,66,0.00,,---,0.00,VWS V14.01,2013-03-27 03:40:00,
2013-03-26 23:45:00,36.4,26.5,30.15,WNW,283,0.0,8.0,67,0.00,,---,0.00,VWS V14.01,2013-03-27 03:45:00,
2013-03-26 23:50:00,36.4,26.5,30.15,SE,127,0.0,6.0,67,0.00,,---,0.00,VWS V14.01,2013-03-27 03:50:00,
2013-03-26 23:55:00,36.6,26.0,30.15,South,184,2.0,6.0,65,0.00,,---,0.00,VWS V14.01,2013-03-27 03:55:00,